createdAt,value
2019-06-08T00:06:23.008Z,15.90
2019-06-08T00:08:52.597Z,15.90
2019-06-08T00:11:23.271Z,16.00
2019-06-08T00:13:53.082Z,15.90
2019-06-08T00:16:23.780Z,15.90
2019-06-08T00:18:53.279Z,15.90
2019-06-08T00:21:23.902Z,15.90
2019-06-08T00:23:53.510Z,15.90
2019-06-08T00:26:24.237Z,15.90
2019-06-08T00:28:53.777Z,15.90
2019-06-08T00:31:23.230Z,15.90
2019-06-08T00:36:48.677Z,15.90
2019-06-08T00:39:20.917Z,15.90
2019-06-08T00:41:52.726Z,15.90
2019-06-08T00:44:23.319Z,15.90
2019-06-08T00:46:53.015Z,16.00
2019-06-08T00:49:22.886Z,15.90
2019-06-08T00:51:52.415Z,15.90
2019-06-08T00:54:21.954Z,15.90
2019-06-08T00:56:53.592Z,15.90
2019-06-08T00:59:24.329Z,15.90
2019-06-08T01:01:53.850Z,15.90
2019-06-08T01:04:23.292Z,15.90
2019-06-08T01:06:55.354Z,15.90
2019-06-08T01:09:24.844Z,15.90
2019-06-08T01:11:54.339Z,15.90
2019-06-08T01:14:24.838Z,15.90
2019-06-08T01:16:54.277Z,15.90
2019-06-08T01:19:25.141Z,15.90
2019-06-08T01:21:54.725Z,15.90
2019-06-08T01:24:25.638Z,15.80
2019-06-08T01:26:55.375Z,15.80
2019-06-08T01:32:32.482Z,15.80
2019-06-08T01:35:02.059Z,15.80
2019-06-08T01:37:31.968Z,15.80
2019-06-08T01:40:01.623Z,15.90
2019-06-08T01:42:31.868Z,15.90
2019-06-08T01:45:03.434Z,15.90
2019-06-08T01:47:33.194Z,15.80
2019-06-08T01:50:02.696Z,15.80
2019-06-08T01:52:32.978Z,15.80
2019-06-08T01:55:02.688Z,15.80
2019-06-08T01:57:33.702Z,15.80
2019-06-08T02:00:28.681Z,15.70
2019-06-08T02:02:34.616Z,15.70
2019-06-08T02:05:07.060Z,15.70
2019-06-08T02:07:41.602Z,15.70
2019-06-08T02:10:11.323Z,15.60
2019-06-08T02:12:42.808Z,15.70
2019-06-08T02:15:13.042Z,15.60
2019-06-08T02:20:43.138Z,15.70
2019-06-08T02:23:12.587Z,15.70
2019-06-08T02:25:41.986Z,15.60
2019-06-08T02:28:11.356Z,15.60
2019-06-08T02:30:41.953Z,15.60
2019-06-08T02:33:11.437Z,15.60
2019-06-08T02:35:41.784Z,15.60
2019-06-08T02:38:11.456Z,15.50
2019-06-08T02:40:40.852Z,15.50
2019-06-08T02:43:38.288Z,15.60
2019-06-08T02:46:07.805Z,15.60
2019-06-08T02:48:56.312Z,15.50
2019-06-08T02:54:18.796Z,15.50
2019-06-08T02:56:50.143Z,15.50
2019-06-08T02:59:22.836Z,15.40
2019-06-08T03:01:56.734Z,15.40
2019-06-08T03:04:27.746Z,15.40
2019-06-08T03:06:59.713Z,15.40
2019-06-08T03:09:31.123Z,15.40
2019-06-08T03:12:04.902Z,15.40
2019-06-08T03:14:41.865Z,15.30
2019-06-08T03:17:11.051Z,15.20
2019-06-08T03:19:43.223Z,15.20
2019-06-08T03:22:15.855Z,15.20
2019-06-08T03:24:46.761Z,15.20
2019-06-08T03:27:16.368Z,15.20
2019-06-08T03:29:47.400Z,15.20
2019-06-08T03:32:17.852Z,15.20
2019-06-08T03:34:55.118Z,15.20
2019-06-08T03:37:18.764Z,15.20
2019-06-08T03:42:58.022Z,15.10
2019-06-08T03:45:28.563Z,15.10
2019-06-08T03:47:58.170Z,15.20
2019-06-08T03:50:28.116Z,15.10
2019-06-08T03:52:57.878Z,15.10
2019-06-08T03:55:28.314Z,15.10
2019-06-08T03:57:57.863Z,15.00
2019-06-08T04:00:27.287Z,15.00
2019-06-08T04:02:57.129Z,15.00
2019-06-08T04:05:26.589Z,15.10
2019-06-08T04:07:58.392Z,15.10
2019-06-08T04:10:28.504Z,15.00
2019-06-08T04:12:58.045Z,15.00
2019-06-08T04:15:31.118Z,15.10
2019-06-08T04:18:02.159Z,15.00
2019-06-08T04:20:33.624Z,15.00
2019-06-08T04:23:03.165Z,14.90
2019-06-08T04:25:32.660Z,14.90
2019-06-08T04:28:05.680Z,14.90
2019-06-08T04:30:39.346Z,14.90
2019-06-08T04:33:10.985Z,14.80
2019-06-08T04:35:42.559Z,14.80
2019-06-08T04:38:12.143Z,14.80
2019-06-08T04:40:45.668Z,14.80
2019-06-08T04:43:13.462Z,14.80
2019-06-08T04:45:45.178Z,14.80
2019-06-08T04:48:28.545Z,14.70
2019-06-08T04:50:57.989Z,14.70
2019-06-08T04:53:27.383Z,14.70
2019-06-08T04:55:56.807Z,14.70
2019-06-08T04:58:26.229Z,14.60
2019-06-08T05:00:55.602Z,14.70
2019-06-08T05:03:25.196Z,14.70
2019-06-08T05:09:00.288Z,14.70
2019-06-08T05:11:30.111Z,14.80
2019-06-08T05:13:59.690Z,14.80
2019-06-08T05:16:29.108Z,14.80
2019-06-08T05:18:58.538Z,14.70
2019-06-08T05:21:28.036Z,14.70
2019-06-08T05:23:58.837Z,14.80
2019-06-08T05:29:34.313Z,14.70
2019-06-08T05:35:11.870Z,14.70
2019-06-08T05:37:43.663Z,14.70
2019-06-08T05:40:14.569Z,14.60
2019-06-08T05:42:44.241Z,14.60
2019-06-08T05:45:14.850Z,14.70
2019-06-08T05:47:45.712Z,14.60
2019-06-08T05:53:14.498Z,14.70
2019-06-08T05:55:43.917Z,14.60
2019-06-08T05:58:13.339Z,14.60
2019-06-08T06:00:46.269Z,14.60
2019-06-08T06:03:15.821Z,14.60
2019-06-08T06:05:46.436Z,14.60
2019-06-08T06:08:19.290Z,14.60
2019-06-08T06:10:47.034Z,14.50
2019-06-08T06:13:16.428Z,14.50
2019-06-08T06:15:47.209Z,14.50
2019-06-08T06:18:16.587Z,14.30
2019-06-08T06:20:47.291Z,14.30
2019-06-08T06:23:16.758Z,14.20
2019-06-08T06:25:47.452Z,14.30
2019-06-08T06:28:16.966Z,14.20
2019-06-08T06:30:47.030Z,14.20
2019-06-08T06:33:17.346Z,14.10
2019-06-08T06:35:47.839Z,14.10
2019-06-08T06:38:17.226Z,14.10
2019-06-08T06:40:47.978Z,14.10
2019-06-08T06:43:17.385Z,14.10
2019-06-08T06:45:47.935Z,14.10
2019-06-08T06:48:17.405Z,14.10
2019-06-08T06:50:46.816Z,14.10
2019-06-08T06:53:16.299Z,14.10
2019-06-08T06:55:46.841Z,14.10
2019-06-08T06:58:16.451Z,14.10
2019-06-08T07:00:45.764Z,14.10
2019-06-08T07:03:15.136Z,14.10
2019-06-08T07:05:45.676Z,14.10
2019-06-08T07:08:15.146Z,14.10
2019-06-08T07:10:44.730Z,14.10
2019-06-08T07:13:14.112Z,14.10
2019-06-08T07:15:44.792Z,14.00
2019-06-08T07:18:14.428Z,14.10
2019-06-08T07:20:43.927Z,14.00
2019-06-08T07:23:13.491Z,14.00
2019-06-08T07:25:42.950Z,14.00
2019-06-08T07:28:12.371Z,14.00
2019-06-08T07:30:41.819Z,14.00
2019-06-08T07:33:11.375Z,14.10
2019-06-08T07:35:40.749Z,14.10
2019-06-08T07:38:10.178Z,14.10
2019-06-08T07:40:39.583Z,14.20
2019-06-08T07:43:09.037Z,14.20
2019-06-08T07:45:38.450Z,14.20
2019-06-08T07:48:08.070Z,14.30
2019-06-08T07:50:37.533Z,14.30
2019-06-08T07:53:06.939Z,14.30
2019-06-08T07:55:36.490Z,14.40
2019-06-08T07:58:05.974Z,14.50
2019-06-08T08:00:35.375Z,14.60
2019-06-08T08:03:04.842Z,14.60
2019-06-08T08:05:34.250Z,14.70
2019-06-08T08:08:03.652Z,14.80
2019-06-08T08:10:33.051Z,15.00
2019-06-08T08:13:02.472Z,15.10
2019-06-08T08:15:31.885Z,15.10
2019-06-08T08:18:01.312Z,15.10
2019-06-08T08:20:30.738Z,15.20
2019-06-08T08:23:05.563Z,15.30
2019-06-08T08:25:31.204Z,15.20
2019-06-08T08:28:01.073Z,15.20
2019-06-08T08:30:30.593Z,15.10
2019-06-08T08:33:03.016Z,15.00
2019-06-08T08:35:31.009Z,14.90
2019-06-08T08:38:02.968Z,14.90
2019-06-08T08:40:31.482Z,14.90
2019-06-08T08:46:07.760Z,14.90
2019-06-08T08:48:37.820Z,14.90
2019-06-08T08:51:08.567Z,14.90
2019-06-08T08:53:38.074Z,15.00
2019-06-08T08:56:07.536Z,15.20
2019-06-08T08:58:38.070Z,15.30
2019-06-08T09:01:11.583Z,15.30
2019-06-08T09:03:41.043Z,15.40
2019-06-08T09:06:10.596Z,15.50
2019-06-08T09:08:40.052Z,15.50
2019-06-08T09:11:14.648Z,15.70
2019-06-08T09:13:45.882Z,15.70
2019-06-08T09:16:17.678Z,15.80
2019-06-08T09:18:48.728Z,15.70
2019-06-08T09:21:20.206Z,15.70
2019-06-08T09:23:49.399Z,15.70
2019-06-08T09:26:21.033Z,16.00
2019-06-08T09:28:51.681Z,16.20
2019-06-08T09:34:22.855Z,16.60
2019-06-08T09:36:54.165Z,16.80
2019-06-08T09:39:23.910Z,16.80
2019-06-08T09:41:54.278Z,17.00
2019-06-08T09:44:24.416Z,17.20
2019-06-08T09:46:55.142Z,17.40
2019-06-08T09:52:32.564Z,17.40
2019-06-08T09:55:05.801Z,17.30
2019-06-08T09:57:34.326Z,17.10
2019-06-08T10:00:14.349Z,16.90
2019-06-08T10:02:34.955Z,16.90
2019-06-08T10:05:06.342Z,17.00
2019-06-08T10:07:38.517Z,17.00
2019-06-08T10:15:51.466Z,17.40
2019-06-08T10:18:19.507Z,17.60
2019-06-08T10:20:48.907Z,17.60
2019-06-08T10:23:30.730Z,17.70
2019-06-08T10:25:49.312Z,17.90
2019-06-08T10:28:21.596Z,17.80
2019-06-08T10:30:49.799Z,17.70
2019-06-08T10:33:19.187Z,17.50
2019-06-08T10:35:48.630Z,17.30
2019-06-08T10:38:18.275Z,17.30
2019-06-08T10:41:11.920Z,17.30
2019-06-08T10:43:38.618Z,17.30
2019-06-08T10:46:14.690Z,17.40
2019-06-08T10:48:39.167Z,17.60
2019-06-08T10:51:11.204Z,17.70
2019-06-08T10:53:49.183Z,17.80
2019-06-08T10:56:12.327Z,18.00
2019-06-08T10:58:41.977Z,18.00
2019-06-08T11:01:13.160Z,17.80
2019-06-08T11:03:42.475Z,17.60
2019-06-08T11:06:30.897Z,17.70
2019-06-08T11:09:03.720Z,18.10
2019-06-08T11:11:31.367Z,18.60
2019-06-08T11:14:02.521Z,18.70
2019-06-08T11:16:31.801Z,19.10
2019-06-08T11:19:03.031Z,19.10
2019-06-08T11:21:35.668Z,18.70
2019-06-08T11:24:16.142Z,18.50
2019-06-08T11:26:40.000Z,18.50
2019-06-08T11:29:11.404Z,18.50
2019-06-08T11:31:39.200Z,18.60
2019-06-08T11:34:10.212Z,18.80
2019-06-08T11:36:39.703Z,19.00
2019-06-08T11:39:12.588Z,19.00
2019-06-08T11:44:42.313Z,18.50
2019-06-08T11:50:23.029Z,18.00
2019-06-08T11:52:52.580Z,17.60
2019-06-08T11:55:25.109Z,17.50
2019-06-08T11:57:58.496Z,17.40
2019-06-08T12:01:04.589Z,17.30
2019-06-08T12:03:33.213Z,17.40
2019-06-08T12:06:04.099Z,17.30
2019-06-08T12:08:38.120Z,17.20
2019-06-08T12:11:15.688Z,17.20
2019-06-08T12:16:37.890Z,17.20
2019-06-08T12:19:15.122Z,17.40
2019-06-08T12:21:44.193Z,17.70
2019-06-08T12:24:15.771Z,17.90
2019-06-08T12:26:51.802Z,18.20
2019-06-08T12:29:21.359Z,18.30
2019-06-08T12:31:53.522Z,18.50
2019-06-08T12:34:28.049Z,18.70
2019-06-08T12:36:59.498Z,19.00
2019-06-08T12:39:29.550Z,18.90
2019-06-08T12:41:59.645Z,18.90
2019-06-08T12:44:29.648Z,19.10
2019-06-08T12:47:00.163Z,19.10
2019-06-08T12:55:22.697Z,18.50
2019-06-08T12:57:51.683Z,18.30
2019-06-08T13:03:29.913Z,18.00
2019-06-08T13:05:59.635Z,18.00
2019-06-08T13:08:30.238Z,18.20
2019-06-08T13:17:13.099Z,19.60
2019-06-08T13:19:59.602Z,20.10
2019-06-08T13:22:31.440Z,20.00
2019-06-08T13:28:08.782Z,19.50
2019-06-08T13:30:39.098Z,19.90
2019-06-08T13:33:20.195Z,20.40
2019-06-08T13:35:49.811Z,20.70
2019-06-08T13:47:38.235Z,19.30
2019-06-08T13:50:24.640Z,19.20
2019-06-08T13:52:54.352Z,19.10
2019-06-08T13:55:41.502Z,19.40
2019-06-08T13:57:55.436Z,20.00
2019-06-08T14:00:38.546Z,20.60
2019-06-08T14:03:09.463Z,21.20
2019-06-08T14:11:47.650Z,21.10
2019-06-08T14:14:17.689Z,20.70
2019-06-08T14:16:50.730Z,20.20
2019-06-08T14:19:23.288Z,19.60
2019-06-08T14:24:57.022Z,18.90
2019-06-08T14:27:28.581Z,18.10
2019-06-08T14:33:04.088Z,17.20
2019-06-08T14:35:33.388Z,17.00
2019-06-08T14:38:02.894Z,16.70
2019-06-08T14:40:33.169Z,16.60
2019-06-08T14:45:58.860Z,17.00
2019-06-08T14:48:33.562Z,17.60
2019-06-08T14:51:00.871Z,18.10
2019-06-08T14:53:30.292Z,18.40
2019-06-08T14:56:08.636Z,18.90
2019-06-08T14:58:38.564Z,19.30
2019-06-08T15:01:08.007Z,19.20
2019-06-08T15:03:38.117Z,18.90
2019-06-08T15:06:08.239Z,18.70
2019-06-08T15:08:37.965Z,18.40
2019-06-08T15:11:08.188Z,18.10
2019-06-08T15:13:40.559Z,18.40
2019-06-08T15:16:09.156Z,18.80
2019-06-08T15:18:38.660Z,19.10
2019-06-08T15:21:08.097Z,19.20
2019-06-08T15:23:37.479Z,19.50
2019-06-08T15:26:22.321Z,19.40
2019-06-08T15:28:38.076Z,19.10
2019-06-08T15:34:13.138Z,19.10
2019-06-08T15:36:42.564Z,19.50
2019-06-08T15:39:14.554Z,19.90
2019-06-08T15:41:44.012Z,20.30
2019-06-08T15:44:13.397Z,20.70
2019-06-08T15:46:42.767Z,21.10
2019-06-08T15:49:12.171Z,21.40
2019-06-08T15:51:41.589Z,21.50
2019-06-08T15:54:12.383Z,21.60
2019-06-08T15:56:51.220Z,21.30
2019-06-08T15:59:12.927Z,21.10
2019-06-08T16:01:42.295Z,20.60
2019-06-08T16:04:11.701Z,20.20
2019-06-08T16:06:41.675Z,20.00
2019-06-08T16:09:11.229Z,19.90
2019-06-08T16:11:40.637Z,19.80
2019-06-08T16:14:10.042Z,19.70
2019-06-08T16:16:39.421Z,19.60
2019-06-08T16:19:08.806Z,19.70
2019-06-08T16:21:38.391Z,19.70
2019-06-08T16:24:07.856Z,19.60
2019-06-08T16:26:49.982Z,19.20
2019-06-08T16:32:12.924Z,19.00
2019-06-08T16:34:42.361Z,18.80
2019-06-08T16:37:11.795Z,19.00
2019-06-08T16:39:41.244Z,19.10
2019-06-08T16:42:10.685Z,19.10
2019-06-08T16:44:40.093Z,19.00
2019-06-08T16:47:09.534Z,18.90
2019-06-08T16:49:39.657Z,18.80
2019-06-08T16:52:09.113Z,18.80
2019-06-08T16:54:39.007Z,18.70
2019-06-08T16:57:10.565Z,18.70
2019-06-08T16:59:58.522Z,18.70
2019-06-08T17:02:28.550Z,18.70
2019-06-08T17:04:58.106Z,18.70
2019-06-08T17:07:27.498Z,18.80
2019-06-08T17:09:56.876Z,18.80
2019-06-08T17:12:26.288Z,18.80
2019-06-08T17:14:55.654Z,18.90
2019-06-08T17:17:25.081Z,19.00
2019-06-08T17:19:54.471Z,19.00
2019-06-08T17:22:23.897Z,19.00
2019-06-08T20:32:52.311Z,14.70
2019-06-08T20:35:21.215Z,14.60
2019-06-08T20:37:50.649Z,14.60
2019-06-08T20:40:20.217Z,14.70
2019-06-08T20:42:53.282Z,14.70
2019-06-08T20:45:21.546Z,14.70
2019-06-08T20:47:52.288Z,14.80
2019-06-08T20:50:22.137Z,14.80
2019-06-08T20:52:52.787Z,14.80
2019-06-08T20:55:22.558Z,14.80
2019-06-08T20:57:52.411Z,14.80
2019-06-08T21:00:22.145Z,14.80
2019-06-08T21:02:53.247Z,14.80
2019-06-08T21:05:27.721Z,14.80
2019-06-08T21:07:55.677Z,14.70
2019-06-08T21:10:27.920Z,14.70
2019-06-08T21:12:58.612Z,14.70
2019-06-08T21:15:27.643Z,14.70
2019-06-08T21:17:57.082Z,14.60
2019-06-08T21:20:28.246Z,14.60
2019-06-08T21:22:59.641Z,14.60
2019-06-08T21:25:28.687Z,14.60
2019-06-08T21:27:58.595Z,14.60
2019-06-08T21:30:28.623Z,14.50
2019-06-08T21:33:00.671Z,14.50
2019-06-08T21:35:29.371Z,14.50
2019-06-08T21:38:00.830Z,14.50
2019-06-08T21:40:29.945Z,14.40
2019-06-08T21:43:01.126Z,14.40
2019-06-08T21:48:38.189Z,14.30
2019-06-08T21:51:09.013Z,14.20
2019-06-08T21:53:38.417Z,14.20
2019-06-08T21:56:08.187Z,14.20
2019-06-08T21:58:37.955Z,14.10
2019-06-08T22:01:07.563Z,14.00
2019-06-08T22:03:42.410Z,14.10
2019-06-08T22:06:11.963Z,14.10
2019-06-08T22:08:42.341Z,14.10
2019-06-08T22:11:11.825Z,14.00
2019-06-08T22:13:42.687Z,14.00
2019-06-08T22:16:14.143Z,14.00
2019-06-08T22:18:44.180Z,14.00
2019-06-08T22:21:17.771Z,13.90
2019-06-08T22:23:47.632Z,13.90
2019-06-08T22:26:17.807Z,13.90
2019-06-08T22:28:48.216Z,13.80
2019-06-08T22:31:18.618Z,13.80
2019-06-08T22:33:48.431Z,13.80
2019-06-08T22:36:18.898Z,13.70
2019-06-08T22:38:48.731Z,13.70
2019-06-08T22:41:18.461Z,13.70
2019-06-08T22:43:48.238Z,13.60
2019-06-08T22:46:17.895Z,13.60
2019-06-08T22:48:47.868Z,13.50
2019-06-08T22:51:18.729Z,13.50
2019-06-08T22:53:48.364Z,13.50
2019-06-08T22:56:18.325Z,13.50
2019-06-08T22:58:48.119Z,13.40
2019-06-08T23:04:23.255Z,13.40
2019-06-08T23:06:54.855Z,13.40
2019-06-08T23:09:28.206Z,13.30
2019-06-08T23:12:00.257Z,13.30
2019-06-08T23:14:28.562Z,13.30
2019-06-08T23:17:01.106Z,13.20
2019-06-08T23:19:29.519Z,13.20
2019-06-08T23:22:00.977Z,13.10
2019-06-08T23:24:29.988Z,13.10
2019-06-08T23:26:59.991Z,13.10
2019-06-08T23:29:29.559Z,12.90
2019-06-08T23:32:01.026Z,12.90
2019-06-08T23:34:30.064Z,12.90
2019-06-08T23:37:03.149Z,12.90
2019-06-08T23:39:30.591Z,12.90
2019-06-08T23:41:59.988Z,13.00
2019-06-08T23:44:29.351Z,13.00
2019-06-08T23:47:01.157Z,13.00
2019-06-08T23:49:29.967Z,13.00
2019-06-08T23:52:01.135Z,12.90
2019-06-08T23:54:30.508Z,13.00
2019-06-08T23:57:01.060Z,13.00
2019-06-08T23:59:30.550Z,12.90
